createdAt,value
2023-01-29T00:02:21.647Z,64.89
2023-01-29T00:04:48.052Z,65.82
2023-01-29T00:07:14.532Z,65.52
2023-01-29T00:09:40.823Z,65.27
2023-01-29T00:12:07.731Z,65.71
2023-01-29T00:14:34.228Z,65.38
2023-01-29T00:17:01.256Z,66.21
2023-01-29T00:19:27.830Z,66.08
2023-01-29T00:21:54.149Z,66.32
2023-01-29T00:24:20.564Z,65.71
2023-01-29T00:26:47.034Z,66.38
2023-01-29T00:29:13.361Z,65.71
2023-01-29T00:31:39.763Z,66.84
2023-01-29T00:34:06.079Z,66.77
2023-01-29T00:36:32.452Z,66.94
2023-01-29T00:39:00.688Z,67.22
2023-01-29T00:41:29.417Z,66.58
2023-01-29T00:43:56.139Z,66.80
2023-01-29T00:46:22.511Z,66.35
2023-01-29T00:48:48.811Z,65.94
2023-01-29T00:51:15.098Z,66.46
2023-01-29T00:53:41.372Z,66.04
2023-01-29T00:56:07.654Z,66.38
2023-01-29T00:58:33.965Z,65.88
2023-01-29T01:01:03.012Z,65.79
2023-01-29T01:03:30.001Z,66.53
2023-01-29T01:06:03.924Z,66.28
2023-01-29T01:08:30.217Z,65.46
2023-01-29T01:11:01.923Z,65.61
2023-01-29T01:13:28.975Z,65.83
2023-01-29T01:15:55.274Z,66.17
2023-01-29T01:18:21.583Z,66.33
2023-01-29T01:20:48.181Z,66.38
2023-01-29T01:23:14.454Z,65.68
2023-01-29T01:25:41.126Z,65.76
2023-01-29T01:28:08.581Z,65.32
2023-01-29T01:30:34.860Z,65.04
2023-01-29T01:33:01.140Z,65.65
2023-01-29T01:35:27.629Z,65.88
2023-01-29T01:37:54.005Z,65.79
2023-01-29T01:40:22.177Z,65.81
2023-01-29T01:42:50.629Z,65.50
2023-01-29T01:45:35.654Z,65.82
2023-01-29T01:48:22.316Z,65.95
2023-01-29T01:50:51.514Z,65.27
2023-01-29T01:53:24.357Z,65.45
2023-01-29T01:55:56.011Z,65.44
2023-01-29T01:58:31.610Z,65.33
2023-01-29T02:00:59.014Z,65.63
2023-01-29T02:03:27.831Z,65.28
2023-01-29T02:05:57.154Z,64.94
2023-01-29T02:08:34.761Z,65.56
2023-01-29T02:11:01.301Z,65.50
2023-01-29T02:13:27.641Z,65.68
2023-01-29T02:15:53.920Z,66.02
2023-01-29T02:18:21.520Z,66.00
2023-01-29T02:21:18.781Z,65.81
2023-01-29T02:24:11.410Z,66.21
2023-01-29T02:27:07.098Z,65.71
2023-01-29T02:29:44.357Z,66.08
2023-01-29T02:32:39.070Z,65.75
2023-01-29T02:35:45.124Z,65.82
2023-01-29T02:38:24.949Z,65.94
2023-01-29T02:41:06.246Z,65.78
2023-01-29T02:43:55.742Z,65.98
2023-01-29T02:46:46.412Z,65.95
2023-01-29T02:49:30.731Z,65.99
2023-01-29T02:52:11.859Z,66.06
2023-01-29T02:54:46.746Z,66.49
2023-01-29T02:57:35.090Z,66.58
2023-01-29T03:00:27.739Z,66.45
2023-01-29T03:03:06.876Z,66.47
2023-01-29T03:05:58.467Z,66.03
2023-01-29T03:08:32.693Z,66.30
2023-01-29T03:11:03.670Z,66.09
2023-01-29T03:14:06.327Z,66.09
2023-01-29T03:16:41.858Z,66.02
2023-01-29T03:19:28.342Z,66.06
2023-01-29T03:21:58.043Z,66.39
2023-01-29T03:24:42.382Z,66.27
2023-01-29T03:27:12.779Z,66.03
2023-01-29T03:29:42.279Z,65.90
2023-01-29T03:32:10.301Z,66.08
2023-01-29T03:34:50.267Z,66.78
2023-01-29T03:37:29.329Z,66.37
2023-01-29T03:39:55.911Z,66.33
2023-01-29T03:42:28.723Z,65.78
2023-01-29T03:45:04.067Z,65.76
2023-01-29T03:47:50.357Z,66.20
2023-01-29T03:50:47.780Z,65.42
2023-01-29T03:53:24.736Z,65.76
2023-01-29T03:56:08.927Z,65.60
2023-01-29T03:58:44.555Z,65.81
2023-01-29T04:01:20.454Z,65.92
2023-01-29T04:03:58.474Z,65.91
2023-01-29T04:06:29.818Z,65.93
2023-01-29T04:09:12.256Z,65.92
2023-01-29T04:11:44.999Z,66.34
2023-01-29T04:14:12.270Z,65.94
2023-01-29T04:16:41.864Z,66.04
2023-01-29T04:19:08.247Z,65.94
2023-01-29T04:21:35.446Z,65.35
2023-01-29T04:24:01.791Z,65.58
2023-01-29T04:26:28.039Z,64.77
2023-01-29T04:29:18.269Z,65.12
2023-01-29T04:32:13.504Z,64.98
2023-01-29T04:35:17.384Z,65.25
2023-01-29T04:38:11.853Z,64.89
2023-01-29T04:41:05.215Z,65.90
2023-01-29T04:43:56.200Z,64.97
2023-01-29T04:46:56.396Z,64.51
2023-01-29T04:49:39.199Z,65.25
2023-01-29T04:52:14.243Z,65.57
2023-01-29T04:54:43.160Z,65.89
2023-01-29T04:57:17.957Z,65.62
2023-01-29T04:59:55.658Z,66.48
2023-01-29T05:02:24.547Z,66.08
2023-01-29T05:04:52.649Z,66.47
2023-01-29T05:07:20.575Z,66.22
2023-01-29T05:09:47.442Z,65.93
2023-01-29T05:12:17.298Z,65.80
2023-01-29T05:14:45.795Z,65.89
2023-01-29T05:17:18.679Z,65.68
2023-01-29T05:19:46.477Z,65.42
2023-01-29T05:22:16.737Z,64.77
2023-01-29T05:24:43.196Z,64.98
2023-01-29T05:27:17.307Z,64.98
2023-01-29T05:29:45.865Z,66.09
2023-01-29T05:32:12.495Z,66.08
2023-01-29T05:34:38.779Z,66.37
2023-01-29T05:37:05.242Z,65.63
2023-01-29T05:39:31.525Z,65.46
2023-01-29T05:41:57.816Z,64.93
2023-01-29T05:44:24.142Z,64.85
2023-01-29T05:46:50.933Z,64.54
2023-01-29T05:49:18.259Z,64.84
2023-01-29T05:51:44.594Z,64.84
2023-01-29T05:54:12.236Z,64.33
2023-01-29T05:56:39.305Z,64.92
2023-01-29T05:59:06.171Z,65.08
2023-01-29T06:01:32.678Z,64.70
2023-01-29T06:03:59.034Z,64.56
2023-01-29T06:06:25.365Z,64.94
2023-01-29T06:08:51.622Z,64.97
2023-01-29T06:11:18.092Z,65.19
2023-01-29T06:13:45.361Z,64.89
2023-01-29T06:16:13.110Z,64.90
2023-01-29T06:18:40.651Z,65.25
2023-01-29T06:21:10.046Z,64.86
2023-01-29T06:23:36.939Z,64.88
2023-01-29T06:26:06.323Z,64.90
2023-01-29T06:28:33.157Z,65.46
2023-01-29T06:31:19.993Z,65.42
2023-01-29T06:33:48.184Z,65.45
2023-01-29T06:36:14.555Z,64.99
2023-01-29T06:38:40.912Z,65.19
2023-01-29T06:41:12.006Z,66.27
2023-01-29T06:43:39.188Z,71.57
2023-01-29T06:46:08.157Z,70.31
2023-01-29T06:48:34.803Z,66.21
2023-01-29T06:51:05.965Z,65.90
2023-01-29T06:53:33.896Z,65.21
2023-01-29T06:56:00.242Z,66.11
2023-01-29T06:58:26.631Z,65.76
2023-01-29T07:00:53.076Z,65.71
2023-01-29T07:03:19.381Z,65.61
2023-01-29T07:05:52.570Z,65.96
2023-01-29T07:08:19.343Z,65.82
2023-01-29T07:10:45.610Z,65.98
2023-01-29T07:13:11.878Z,66.20
2023-01-29T07:15:38.350Z,66.14
2023-01-29T07:18:04.691Z,65.98
2023-01-29T07:20:31.294Z,66.24
2023-01-29T07:22:58.175Z,65.46
2023-01-29T07:25:25.610Z,64.99
2023-01-29T07:27:52.021Z,64.73
2023-01-29T07:30:18.782Z,65.26
2023-01-29T07:32:45.303Z,64.46
2023-01-29T07:35:11.669Z,64.81
2023-01-29T07:37:37.945Z,64.98
2023-01-29T07:40:04.930Z,63.53
2023-01-29T07:42:31.244Z,63.40
2023-01-29T07:44:57.616Z,64.30
2023-01-29T07:47:23.938Z,63.16
2023-01-29T07:49:50.190Z,63.19
2023-01-29T07:52:16.506Z,63.68
2023-01-29T07:54:42.825Z,63.79
2023-01-29T07:57:09.154Z,62.86
2023-01-29T07:59:35.412Z,63.25
2023-01-29T08:02:01.785Z,62.09
2023-01-29T08:04:28.182Z,62.99
2023-01-29T08:06:54.455Z,62.88
2023-01-29T08:09:20.748Z,62.64
2023-01-29T08:11:47.091Z,62.98
2023-01-29T08:14:13.441Z,62.18
2023-01-29T08:16:39.701Z,63.16
2023-01-29T08:19:06.024Z,61.73
2023-01-29T08:21:32.311Z,61.93
2023-01-29T08:23:58.780Z,62.16
2023-01-29T08:26:25.103Z,62.92
2023-01-29T08:28:51.511Z,63.34
2023-01-29T08:31:18.952Z,63.37
2023-01-29T08:33:45.277Z,63.54
2023-01-29T08:36:11.708Z,63.40
2023-01-29T08:38:38.327Z,63.59
2023-01-29T08:41:04.881Z,62.59
2023-01-29T08:43:31.182Z,63.09
2023-01-29T08:45:57.616Z,63.14
2023-01-29T08:48:23.907Z,63.13
2023-01-29T08:50:50.167Z,63.55
2023-01-29T08:53:16.583Z,61.82
2023-01-29T08:55:42.865Z,62.30
2023-01-29T08:58:11.259Z,61.67
2023-01-29T09:00:38.081Z,62.83
2023-01-29T09:03:04.693Z,62.78
2023-01-29T09:05:31.006Z,63.09
2023-01-29T09:07:57.459Z,61.55
2023-01-29T09:10:23.762Z,62.49
2023-01-29T09:12:50.066Z,61.00
2023-01-29T09:15:16.792Z,61.63
2023-01-29T09:17:43.214Z,61.02
2023-01-29T09:20:10.457Z,60.23
2023-01-29T09:22:36.805Z,60.71
2023-01-29T09:25:04.113Z,60.63
2023-01-29T09:27:30.552Z,61.21
2023-01-29T09:29:56.851Z,60.76
2023-01-29T09:32:49.690Z,60.16
2023-01-29T09:35:09.783Z,59.08
2023-01-29T09:37:36.047Z,59.04
2023-01-29T09:40:02.365Z,58.48
2023-01-29T09:42:37.972Z,59.44
2023-01-29T09:45:23.047Z,59.85
2023-01-29T09:47:49.354Z,59.35
2023-01-29T09:50:42.310Z,60.09
2023-01-29T09:53:28.844Z,61.01
2023-01-29T09:56:11.144Z,60.26
2023-01-29T09:58:40.897Z,59.22
2023-01-29T10:01:17.552Z,59.42
2023-01-29T10:04:07.747Z,58.84
2023-01-29T10:07:16.788Z,58.81
2023-01-29T10:10:00.850Z,59.51
2023-01-29T10:12:53.427Z,60.17
2023-01-29T10:15:28.810Z,59.12
2023-01-29T10:18:16.942Z,59.82
2023-01-29T10:21:19.524Z,59.67
2023-01-29T10:24:00.581Z,59.28
2023-01-29T10:26:28.650Z,59.57
2023-01-29T10:28:58.528Z,60.16
2023-01-29T10:31:30.712Z,58.63
2023-01-29T10:34:07.211Z,57.81
2023-01-29T10:36:43.252Z,56.69
2023-01-29T10:39:16.451Z,56.82
2023-01-29T10:42:04.013Z,57.75
2023-01-29T10:45:00.364Z,58.00
2023-01-29T10:48:09.473Z,56.82
2023-01-29T10:50:52.121Z,57.25
2023-01-29T10:53:24.658Z,57.17
2023-01-29T10:56:22.647Z,56.69
2023-01-29T10:58:53.568Z,57.26
2023-01-29T11:01:19.905Z,57.54
2023-01-29T11:03:54.886Z,58.36
2023-01-29T11:06:24.739Z,58.97
2023-01-29T11:09:09.880Z,57.81
2023-01-29T11:12:01.138Z,58.06
2023-01-29T11:14:32.832Z,58.76
2023-01-29T11:16:59.297Z,58.50
2023-01-29T11:19:40.827Z,55.78
2023-01-29T11:22:14.825Z,56.61
2023-01-29T11:24:41.231Z,56.94
2023-01-29T11:27:25.711Z,56.51
2023-01-29T11:29:53.466Z,57.50
2023-01-29T11:32:22.806Z,57.03
2023-01-29T11:34:58.146Z,57.35
2023-01-29T11:37:32.616Z,54.60
2023-01-29T11:39:59.004Z,57.03
2023-01-29T11:42:31.492Z,57.01
2023-01-29T11:44:57.791Z,56.70
2023-01-29T11:47:29.437Z,55.30
2023-01-29T11:49:58.117Z,56.65
2023-01-29T11:52:33.938Z,56.70
2023-01-29T11:55:07.403Z,56.73
2023-01-29T11:57:38.277Z,57.41
2023-01-29T12:00:07.824Z,56.79
2023-01-29T12:02:43.202Z,55.85
2023-01-29T12:05:18.269Z,56.28
2023-01-29T12:07:48.425Z,56.20
2023-01-29T12:10:33.365Z,55.29
2023-01-29T12:13:10.072Z,56.02
2023-01-29T12:15:40.968Z,55.44
2023-01-29T12:18:29.066Z,56.20
2023-01-29T12:21:05.377Z,57.01
2023-01-29T12:23:41.035Z,58.13
2023-01-29T12:26:16.251Z,57.09
2023-01-29T12:29:07.041Z,57.73
2023-01-29T12:32:05.360Z,57.24
2023-01-29T12:34:37.710Z,56.31
2023-01-29T12:37:20.947Z,56.64
2023-01-29T12:39:49.398Z,56.30
2023-01-29T12:42:19.811Z,56.28
2023-01-29T12:45:01.471Z,57.29
2023-01-29T12:47:42.574Z,57.10
2023-01-29T12:50:24.087Z,57.37
2023-01-29T12:52:56.594Z,56.75
2023-01-29T12:55:27.803Z,56.68
2023-01-29T12:57:59.795Z,57.49
2023-01-29T13:00:29.743Z,55.93
2023-01-29T13:03:20.875Z,56.48
2023-01-29T13:05:52.126Z,56.98
2023-01-29T13:08:32.463Z,55.63
2023-01-29T13:11:02.773Z,54.91
2023-01-29T13:13:54.113Z,54.37
2023-01-29T13:16:25.916Z,55.27
2023-01-29T13:19:02.450Z,54.20
2023-01-29T13:21:37.074Z,53.82
2023-01-29T13:24:09.893Z,54.06
2023-01-29T13:26:37.292Z,53.49
2023-01-29T13:29:04.053Z,53.45
2023-01-29T13:31:39.700Z,53.96
2023-01-29T13:34:20.852Z,54.35
2023-01-29T13:36:57.224Z,55.05
2023-01-29T13:39:35.196Z,56.11
2023-01-29T13:42:14.324Z,56.65
2023-01-29T13:44:40.932Z,57.07
2023-01-29T13:47:09.945Z,57.26
2023-01-29T13:49:43.095Z,57.03
2023-01-29T13:52:35.676Z,56.64
2023-01-29T13:55:32.886Z,56.84
2023-01-29T13:58:04.369Z,57.08
2023-01-29T14:00:33.812Z,57.30
2023-01-29T14:03:00.154Z,57.24
2023-01-29T14:05:29.459Z,57.19
2023-01-29T14:08:03.437Z,57.30
2023-01-29T14:10:30.734Z,57.78
2023-01-29T14:13:03.089Z,57.73
2023-01-29T14:15:32.886Z,58.10
2023-01-29T14:18:08.423Z,58.72
2023-01-29T14:20:46.077Z,58.55
2023-01-29T14:23:39.803Z,58.42
2023-01-29T14:26:21.122Z,58.37
2023-01-29T14:29:01.198Z,58.75
2023-01-29T14:31:32.075Z,57.90
2023-01-29T14:34:04.947Z,58.42
2023-01-29T14:36:40.278Z,58.39
2023-01-29T14:39:17.474Z,58.25
2023-01-29T14:41:43.848Z,58.29
2023-01-29T14:44:44.130Z,57.81
2023-01-29T14:47:19.249Z,57.97
2023-01-29T14:49:51.561Z,58.11
2023-01-29T14:52:22.739Z,58.08
2023-01-29T14:54:51.145Z,57.55
2023-01-29T14:57:18.095Z,58.06
2023-01-29T14:59:53.222Z,58.50
2023-01-29T15:02:24.297Z,58.59
2023-01-29T15:04:58.260Z,58.63
2023-01-29T15:07:44.104Z,58.82
2023-01-29T15:10:23.084Z,58.95
2023-01-29T15:12:54.659Z,59.17
2023-01-29T15:15:36.312Z,59.17
2023-01-29T15:18:29.036Z,58.87
2023-01-29T15:21:04.914Z,58.86
2023-01-29T15:23:34.125Z,59.16
2023-01-29T15:26:03.482Z,59.36
2023-01-29T15:28:31.728Z,59.74
2023-01-29T15:31:01.012Z,60.89
2023-01-29T15:33:28.544Z,60.42
2023-01-29T15:36:06.954Z,60.40
2023-01-29T15:38:36.616Z,60.19
2023-01-29T15:41:16.339Z,60.87
2023-01-29T15:43:55.874Z,60.89
2023-01-29T15:46:26.876Z,60.80
2023-01-29T15:48:55.905Z,60.89
2023-01-29T15:51:27.155Z,60.83
2023-01-29T15:54:03.483Z,61.08
2023-01-29T15:56:50.177Z,60.83
2023-01-29T15:59:22.374Z,60.54
2023-01-29T16:01:48.830Z,60.84
2023-01-29T16:04:20.560Z,60.83
2023-01-29T16:06:47.887Z,61.04
2023-01-29T16:09:25.853Z,61.94
2023-01-29T16:11:54.318Z,61.66
2023-01-29T16:14:24.275Z,61.86
2023-01-29T16:16:51.957Z,61.62
2023-01-29T16:19:27.611Z,62.59
2023-01-29T16:22:01.322Z,61.86
2023-01-29T16:24:29.258Z,62.72
2023-01-29T16:27:07.187Z,63.27
2023-01-29T16:29:34.564Z,63.58
2023-01-29T16:32:02.317Z,62.35
2023-01-29T16:34:38.525Z,62.95
2023-01-29T16:37:16.094Z,63.10
2023-01-29T16:39:47.286Z,63.13
2023-01-29T16:42:13.584Z,63.42
2023-01-29T16:44:45.439Z,63.32
2023-01-29T16:47:14.413Z,64.79
2023-01-29T16:49:45.783Z,65.20
2023-01-29T16:52:23.878Z,65.07
2023-01-29T16:54:50.415Z,64.70
2023-01-29T16:57:24.574Z,65.43
2023-01-29T16:59:55.289Z,65.11
2023-01-29T17:02:31.399Z,65.32
2023-01-29T17:05:01.697Z,65.59
2023-01-29T17:07:28.905Z,65.15
2023-01-29T17:09:59.656Z,65.21
2023-01-29T17:12:28.399Z,65.74
2023-01-29T17:15:01.916Z,65.07
2023-01-29T17:17:33.968Z,64.95
2023-01-29T17:20:12.229Z,65.65
2023-01-29T17:22:38.606Z,66.04
2023-01-29T17:25:05.364Z,67.01
2023-01-29T17:27:31.881Z,66.06
2023-01-29T17:29:58.622Z,66.18
2023-01-29T17:32:25.338Z,66.86
2023-01-29T17:35:15.126Z,67.03
2023-01-29T17:37:41.888Z,66.82
2023-01-29T17:40:29.753Z,67.23
2023-01-29T17:42:56.017Z,66.01
2023-01-29T17:45:22.305Z,66.51
2023-01-29T17:47:48.600Z,68.10
2023-01-29T17:50:22.489Z,67.88
2023-01-29T17:52:49.718Z,67.87
2023-01-29T17:55:16.796Z,67.00
2023-01-29T17:57:43.356Z,66.94
2023-01-29T18:00:13.701Z,67.05
2023-01-29T18:02:40.011Z,66.48
2023-01-29T18:05:06.631Z,66.58
2023-01-29T18:07:32.971Z,66.90
2023-01-29T18:09:59.247Z,66.91
2023-01-29T18:12:25.740Z,67.29
2023-01-29T18:14:52.021Z,66.91
2023-01-29T18:17:18.733Z,67.23
2023-01-29T18:19:45.060Z,66.65
2023-01-29T18:22:11.366Z,67.74
2023-01-29T18:24:37.682Z,67.65
2023-01-29T18:27:04.085Z,67.12
2023-01-29T18:29:30.447Z,68.07
2023-01-29T18:31:56.843Z,69.30
2023-01-29T18:34:23.218Z,69.04
2023-01-29T18:36:49.635Z,69.42
2023-01-29T18:39:16.476Z,69.00
2023-01-29T18:41:42.971Z,69.74
2023-01-29T18:44:10.570Z,69.52
2023-01-29T18:46:36.922Z,69.35
2023-01-29T18:49:03.372Z,69.43
2023-01-29T18:51:29.694Z,69.32
2023-01-29T18:53:56.070Z,69.32
2023-01-29T18:56:22.418Z,69.73
2023-01-29T18:58:52.380Z,69.97
2023-01-29T19:01:22.138Z,69.52
2023-01-29T19:03:48.506Z,70.44
2023-01-29T19:06:14.864Z,70.28
2023-01-29T19:08:41.477Z,70.19
2023-01-29T19:11:07.775Z,71.54
2023-01-29T19:13:36.337Z,70.65
2023-01-29T19:16:06.424Z,70.82
2023-01-29T19:18:32.694Z,70.65
2023-01-29T19:20:58.997Z,71.18
2023-01-29T19:23:25.545Z,71.46
2023-01-29T19:25:51.876Z,71.20
2023-01-29T19:28:18.171Z,71.60
2023-01-29T19:30:44.575Z,72.35
2023-01-29T19:33:11.053Z,74.30
2023-01-29T19:35:37.490Z,71.39
2023-01-29T19:38:04.561Z,72.35
2023-01-29T19:40:30.881Z,71.66
2023-01-29T19:42:57.439Z,72.61
2023-01-29T19:45:48.891Z,72.87
2023-01-29T19:48:10.153Z,72.21
2023-01-29T19:50:36.719Z,72.15
2023-01-29T19:53:03.154Z,73.33
2023-01-29T19:55:29.444Z,72.43
2023-01-29T19:57:55.760Z,72.59
2023-01-29T20:00:22.221Z,73.05
2023-01-29T20:02:48.513Z,72.40
2023-01-29T20:05:15.552Z,75.34
2023-01-29T20:07:42.474Z,73.34
2023-01-29T20:10:10.330Z,74.03
2023-01-29T20:12:37.951Z,73.07
2023-01-29T20:15:04.652Z,73.95
2023-01-29T20:17:30.935Z,73.11
2023-01-29T20:19:57.248Z,72.84
2023-01-29T20:22:23.535Z,73.07
2023-01-29T20:24:49.838Z,72.66
2023-01-29T20:27:16.180Z,72.80
2023-01-29T20:29:42.476Z,73.12
2023-01-29T20:32:08.824Z,72.00
2023-01-29T20:34:35.544Z,72.18
2023-01-29T20:37:02.021Z,73.02
2023-01-29T20:39:28.465Z,72.81
2023-01-29T20:41:54.820Z,74.41
2023-01-29T20:44:21.243Z,72.77
2023-01-29T20:46:47.524Z,73.85
2023-01-29T20:49:13.839Z,72.83
2023-01-29T20:51:40.186Z,72.88
2023-01-29T20:54:06.547Z,72.89
2023-01-29T20:56:36.058Z,73.79
2023-01-29T20:59:06.208Z,74.04
2023-01-29T21:01:32.728Z,74.14
2023-01-29T21:03:59.042Z,74.04
2023-01-29T21:06:25.371Z,73.75
2023-01-29T21:08:51.654Z,73.18
2023-01-29T21:11:18.101Z,73.51
2023-01-29T21:13:44.390Z,74.26
2023-01-29T21:16:10.783Z,73.73
2023-01-29T21:18:37.311Z,74.40
2023-01-29T21:21:03.852Z,74.19
2023-01-29T21:23:30.128Z,74.04
2023-01-29T21:26:04.104Z,74.40
2023-01-29T21:28:30.660Z,73.93
2023-01-29T21:31:05.297Z,74.13
2023-01-29T21:33:31.608Z,74.29
2023-01-29T21:36:01.914Z,73.61
2023-01-29T21:38:28.270Z,73.99
2023-01-29T21:41:03.256Z,74.46
2023-01-29T21:43:29.642Z,74.34
2023-01-29T21:45:58.231Z,74.05
2023-01-29T21:48:25.257Z,74.30
2023-01-29T21:50:52.413Z,74.47
2023-01-29T21:53:19.327Z,74.74
2023-01-29T21:55:46.265Z,74.68
2023-01-29T21:58:14.407Z,74.51
2023-01-29T22:00:41.014Z,74.50
2023-01-29T22:03:07.301Z,74.27
2023-01-29T22:05:33.991Z,74.03
2023-01-29T22:08:00.376Z,74.44
2023-01-29T22:10:26.867Z,73.88
2023-01-29T22:12:53.195Z,74.10
2023-01-29T22:15:20.323Z,73.45
2023-01-29T22:17:47.513Z,73.97
2023-01-29T22:20:14.628Z,74.49
2023-01-29T22:22:41.047Z,76.63
2023-01-29T22:25:08.178Z,74.55
2023-01-29T22:27:34.786Z,76.23
2023-01-29T22:30:01.264Z,75.95
2023-01-29T22:32:27.659Z,76.08
2023-01-29T22:34:53.993Z,76.95
2023-01-29T22:37:20.410Z,77.22
2023-01-29T22:39:46.740Z,76.42
2023-01-29T22:42:13.069Z,76.48
2023-01-29T22:44:39.424Z,78.60
2023-01-29T22:47:05.770Z,77.40
2023-01-29T22:49:32.093Z,75.95
2023-01-29T22:51:58.439Z,75.40
2023-01-29T22:54:24.736Z,77.88
2023-01-29T22:56:51.015Z,79.44
2023-01-29T22:59:17.318Z,80.89
2023-01-29T23:01:43.660Z,80.98
2023-01-29T23:04:10.061Z,79.31
2023-01-29T23:06:36.435Z,78.92
2023-01-29T23:09:02.786Z,80.60
2023-01-29T23:11:29.065Z,79.23
2023-01-29T23:13:55.350Z,79.52
2023-01-29T23:16:26.246Z,81.30
2023-01-29T23:18:55.151Z,80.56
2023-01-29T23:21:23.218Z,79.57
2023-01-29T23:23:49.682Z,79.91
2023-01-29T23:26:15.959Z,80.33
2023-01-29T23:28:42.966Z,80.73
2023-01-29T23:31:09.408Z,79.16
2023-01-29T23:33:35.754Z,78.01
2023-01-29T23:36:02.114Z,78.44
2023-01-29T23:38:28.396Z,78.32
2023-01-29T23:40:54.726Z,79.65
2023-01-29T23:43:21.102Z,77.63
2023-01-29T23:45:47.466Z,76.89
2023-01-29T23:48:13.741Z,77.23
2023-01-29T23:50:40.044Z,76.89
2023-01-29T23:53:06.319Z,79.25
2023-01-29T23:55:32.606Z,78.27
2023-01-29T23:57:58.976Z,78.18
